LGL8245 ELLX-LFMN
Flight info
| Callsign | LGL8245 |
|---|---|
| Flight time | 1h 30m |
| Altitude | 23000 |
| Route | GTQ A242 POGOL DCT LASAT DCT MOROK DCT GILIR DCT GEVEA DCT KOGAS DCT MEDAM DCT VEVAR |
| Aircraft | DH8D/M-SDE2E3FGRY/H |
Departure
| Time | 2026-04-30 21:21 |
|---|---|
| Airport | Luxembourg-Findel International Airport (ELLX) |
Arrival
| Time | 2026-04-30 22:51 |
|---|---|
| Airport | Nice-Côte d'Azur Airport (LFMN) |
| Time | Latitude | Longitude | Altitude | Speed | Heading |
|---|---|---|---|---|---|
| 2026-04-30 20:38 | 49.63190 | 6.21477 | 1234 ft | 0 kts | 240° |
| 2026-04-30 21:07 | 49.63192 | 6.21484 | 1234 ft | 2 kts | 242° |
| 2026-04-30 21:07 | 49.63199 | 6.21501 | 1234 ft | 0 kts | 239° |
| 2026-04-30 21:07 | 49.63205 | 6.21515 | 1234 ft | 2 kts | 219° |
| 2026-04-30 21:07 | 49.63219 | 6.21525 | 1234 ft | 2 kts | 189° |
| 2026-04-30 21:08 | 49.63234 | 6.21523 | 1234 ft | 2 kts | 160° |
| 2026-04-30 21:08 | 49.63240 | 6.21519 | 1235 ft | 0 kts | 150° |
| 2026-04-30 21:14 | 49.63180 | 6.21573 | 1233 ft | 13 kts | 149° |
| 2026-04-30 21:14 | 49.63103 | 6.21640 | 1232 ft | 11 kts | 160° |
| 2026-04-30 21:14 | 49.63055 | 6.21573 | 1233 ft | 11 kts | 244° |
| 2026-04-30 21:15 | 49.63018 | 6.21455 | 1235 ft | 13 kts | 244° |
| 2026-04-30 21:15 | 49.62973 | 6.21312 | 1237 ft | 15 kts | 244° |
| 2026-04-30 21:15 | 49.62922 | 6.21147 | 1239 ft | 17 kts | 244° |
| 2026-04-30 21:15 | 49.62874 | 6.20991 | 1240 ft | 14 kts | 245° |
| 2026-04-30 21:16 | 49.62834 | 6.20863 | 1241 ft | 12 kts | 244° |
| 2026-04-30 21:16 | 49.62790 | 6.20743 | 1241 ft | 12 kts | 229° |
| 2026-04-30 21:16 | 49.62720 | 6.20648 | 1240 ft | 15 kts | 216° |
| 2026-04-30 21:16 | 49.62621 | 6.20508 | 1236 ft | 23 kts | 228° |
| 2026-04-30 21:17 | 49.62518 | 6.20324 | 1230 ft | 22 kts | 231° |
| 2026-04-30 21:17 | 49.62437 | 6.20120 | 1222 ft | 22 kts | 240° |
| 2026-04-30 21:17 | 49.62358 | 6.19911 | 1214 ft | 22 kts | 240° |
| 2026-04-30 21:17 | 49.62282 | 6.19704 | 1206 ft | 22 kts | 240° |
| 2026-04-30 21:18 | 49.62213 | 6.19554 | 1199 ft | 14 kts | 201° |
| 2026-04-30 21:18 | 49.62175 | 6.19562 | 1199 ft | 0 kts | 151° |
| 2026-04-30 21:19 | 49.62171 | 6.19565 | 1199 ft | 2 kts | 151° |
| 2026-04-30 21:20 | 49.62149 | 6.19583 | 1199 ft | 3 kts | 150° |
| 2026-04-30 21:20 | 49.62132 | 6.19599 | 1199 ft | 4 kts | 150° |
| 2026-04-30 21:20 | 49.62088 | 6.19654 | 1200 ft | 5 kts | 87° |
| 2026-04-30 21:20 | 49.62107 | 6.19710 | 1202 ft | 13 kts | 61° |
| 2026-04-30 21:21 | 49.62282 | 6.20183 | 1222 ft | 91 kts | 60° |
| 2026-04-30 21:21 | 49.62711 | 6.21333 | 1241 ft | 149 kts | 60° |
| 2026-04-30 21:21 | 49.63643 | 6.24210 | 2421 ft | 146 kts | 70° |
| 2026-04-30 21:22 | 49.64074 | 6.25541 | 3236 ft | 134 kts | 76° |
| 2026-04-30 21:22 | 49.62740 | 6.28933 | 4750 ft | 138 kts | 130° |
| 2026-04-30 21:23 | 49.62050 | 6.30008 | 5147 ft | 143 kts | 131° |
| 2026-04-30 21:23 | 49.61354 | 6.31085 | 5576 ft | 145 kts | 131° |
| 2026-04-30 21:23 | 49.59906 | 6.33315 | 6411 ft | 151 kts | 132° |
| 2026-04-30 21:24 | 49.59155 | 6.34466 | 6837 ft | 154 kts | 132° |
| 2026-04-30 21:24 | 49.58371 | 6.35674 | 7042 ft | 172 kts | 132° |
| 2026-04-30 21:24 | 49.57499 | 6.37015 | 7393 ft | 179 kts | 132° |
| 2026-04-30 21:24 | 49.56615 | 6.38375 | 7817 ft | 184 kts | 132° |
| 2026-04-30 21:25 | 49.54498 | 6.40643 | 8717 ft | 192 kts | 152° |
| 2026-04-30 21:25 | 49.53260 | 6.41484 | 9174 ft | 195 kts | 152° |
| 2026-04-30 21:25 | 49.52022 | 6.42329 | 9641 ft | 197 kts | 152° |
| 2026-04-30 21:26 | 49.49501 | 6.44057 | 10552 ft | 202 kts | 151° |
| 2026-04-30 21:26 | 49.48125 | 6.45016 | 10321 ft | 244 kts | 152° |
| 2026-04-30 21:27 | 49.44555 | 6.47505 | 9705 ft | 297 kts | 153° |
| 2026-04-30 21:27 | 49.42670 | 6.48806 | 10241 ft | 287 kts | 152° |
| 2026-04-30 21:27 | 49.40877 | 6.50042 | 10820 ft | 280 kts | 152° |
| 2026-04-30 21:28 | 49.37425 | 6.52145 | 12108 ft | 269 kts | 158° |
| 2026-04-30 21:28 | 49.35638 | 6.53030 | 12564 ft | 271 kts | 158° |
| 2026-04-30 21:28 | 49.32060 | 6.54814 | 13439 ft | 274 kts | 158° |
| 2026-04-30 21:29 | 49.30254 | 6.55718 | 13839 ft | 276 kts | 158° |
| 2026-04-30 21:29 | 49.24725 | 6.58496 | 15002 ft | 282 kts | 158° |
| 2026-04-30 21:30 | 49.20987 | 6.60377 | 15727 ft | 286 kts | 157° |
| 2026-04-30 21:31 | 49.15285 | 6.63243 | 16750 ft | 290 kts | 157° |
| 2026-04-30 21:31 | 49.11445 | 6.65170 | 17415 ft | 292 kts | 158° |
| 2026-04-30 21:32 | 49.07538 | 6.67130 | 17976 ft | 296 kts | 157° |
| 2026-04-30 21:32 | 49.05573 | 6.68114 | 18272 ft | 298 kts | 158° |
| 2026-04-30 21:32 | 49.03614 | 6.69094 | 18537 ft | 300 kts | 158° |
| 2026-04-30 21:32 | 49.01635 | 6.70084 | 18794 ft | 302 kts | 158° |
| 2026-04-30 21:33 | 48.99620 | 6.71085 | 19069 ft | 303 kts | 159° |
| 2026-04-30 21:33 | 48.95369 | 6.71547 | 19585 ft | 313 kts | 178° |
| 2026-04-30 21:33 | 48.93184 | 6.71440 | 19831 ft | 314 kts | 178° |
| 2026-04-30 21:34 | 48.90987 | 6.71334 | 20086 ft | 315 kts | 178° |
| 2026-04-30 21:34 | 48.86578 | 6.71134 | 20523 ft | 316 kts | 178° |
| 2026-04-30 21:34 | 48.84388 | 6.71040 | 20693 ft | 317 kts | 178° |
| 2026-04-30 21:35 | 48.82149 | 6.70947 | 20838 ft | 319 kts | 178° |
| 2026-04-30 21:35 | 48.79955 | 6.70856 | 21022 ft | 319 kts | 178° |
| 2026-04-30 21:35 | 48.77750 | 6.70765 | 21426 ft | 311 kts | 178° |
| 2026-04-30 21:35 | 48.75583 | 6.70676 | 21701 ft | 309 kts | 178° |
| 2026-04-30 21:36 | 48.73443 | 6.70592 | 21864 ft | 310 kts | 178° |
| 2026-04-30 21:36 | 48.71286 | 6.70507 | 22034 ft | 311 kts | 178° |
| 2026-04-30 21:37 | 48.64768 | 6.70251 | 22518 ft | 313 kts | 178° |
| 2026-04-30 21:37 | 48.62606 | 6.70168 | 22638 ft | 314 kts | 178° |
| 2026-04-30 21:37 | 48.60406 | 6.70083 | 22796 ft | 314 kts | 178° |
| 2026-04-30 21:37 | 48.58239 | 6.70000 | 22929 ft | 315 kts | 178° |
| 2026-04-30 21:38 | 48.56044 | 6.69916 | 23055 ft | 316 kts | 178° |
| 2026-04-30 21:38 | 48.53832 | 6.69831 | 23156 ft | 317 kts | 178° |
| 2026-04-30 21:38 | 48.51622 | 6.69747 | 23236 ft | 320 kts | 178° |
| 2026-04-30 21:38 | 48.49405 | 6.69663 | 23259 ft | 323 kts | 178° |
| 2026-04-30 21:39 | 48.47127 | 6.69577 | 23263 ft | 327 kts | 178° |
| 2026-04-30 21:39 | 48.44849 | 6.69491 | 23263 ft | 331 kts | 178° |
| 2026-04-30 21:39 | 48.42532 | 6.69404 | 23258 ft | 335 kts | 178° |
| 2026-04-30 21:39 | 48.40203 | 6.69315 | 23254 ft | 339 kts | 178° |
| 2026-04-30 21:40 | 48.37837 | 6.69224 | 23258 ft | 342 kts | 178° |
| 2026-04-30 21:40 | 48.35454 | 6.69133 | 23257 ft | 344 kts | 178° |
| 2026-04-30 21:40 | 48.33056 | 6.69040 | 23257 ft | 345 kts | 178° |
| 2026-04-30 21:40 | 48.30672 | 6.68948 | 23252 ft | 344 kts | 178° |
| 2026-04-30 21:41 | 48.28279 | 6.68856 | 23249 ft | 344 kts | 178° |
| 2026-04-30 21:41 | 48.25879 | 6.68763 | 23251 ft | 343 kts | 178° |
| 2026-04-30 21:41 | 48.23512 | 6.68672 | 23251 ft | 342 kts | 178° |
| 2026-04-30 21:41 | 48.21132 | 6.68580 | 23250 ft | 342 kts | 178° |
| 2026-04-30 21:42 | 48.18747 | 6.68489 | 23250 ft | 342 kts | 178° |
| 2026-04-30 21:42 | 48.16376 | 6.68398 | 23250 ft | 341 kts | 178° |
| 2026-04-30 21:42 | 48.14016 | 6.68308 | 23246 ft | 341 kts | 178° |
| 2026-04-30 21:42 | 48.11650 | 6.68218 | 23246 ft | 340 kts | 178° |
| 2026-04-30 21:43 | 48.09268 | 6.68127 | 23246 ft | 340 kts | 178° |
| 2026-04-30 21:43 | 48.06895 | 6.68037 | 23248 ft | 340 kts | 178° |
| 2026-04-30 21:43 | 48.04556 | 6.67948 | 23248 ft | 340 kts | 178° |
| 2026-04-30 21:43 | 48.02199 | 6.67859 | 23245 ft | 340 kts | 178° |
| 2026-04-30 21:44 | 47.99809 | 6.67768 | 23246 ft | 340 kts | 178° |
| 2026-04-30 21:44 | 47.97448 | 6.67679 | 23242 ft | 340 kts | 178° |
| 2026-04-30 21:44 | 47.95094 | 6.67591 | 23241 ft | 340 kts | 178° |
| 2026-04-30 21:44 | 47.92715 | 6.67500 | 23241 ft | 340 kts | 178° |
| 2026-04-30 21:45 | 47.90364 | 6.67411 | 23244 ft | 340 kts | 178° |
| 2026-04-30 21:45 | 47.88013 | 6.67323 | 23251 ft | 339 kts | 178° |
| 2026-04-30 21:45 | 47.85629 | 6.67233 | 23257 ft | 338 kts | 178° |
| 2026-04-30 21:45 | 47.83298 | 6.67145 | 23257 ft | 339 kts | 178° |
| 2026-04-30 21:46 | 47.80917 | 6.67056 | 23253 ft | 340 kts | 178° |
| 2026-04-30 21:46 | 47.78542 | 6.66966 | 23251 ft | 341 kts | 178° |
| 2026-04-30 21:46 | 47.76190 | 6.66878 | 23250 ft | 341 kts | 178° |
| 2026-04-30 21:46 | 47.73813 | 6.66789 | 23248 ft | 342 kts | 178° |
| 2026-04-30 21:47 | 47.71436 | 6.66700 | 23248 ft | 342 kts | 178° |
| 2026-04-30 21:47 | 47.69053 | 6.66611 | 23248 ft | 343 kts | 178° |
| 2026-04-30 21:47 | 47.66686 | 6.66522 | 23249 ft | 343 kts | 178° |
| 2026-04-30 21:47 | 47.64296 | 6.66433 | 23249 ft | 343 kts | 178° |
| 2026-04-30 21:48 | 47.61985 | 6.66347 | 23221 ft | 322 kts | 178° |
| 2026-04-30 21:48 | 47.59831 | 6.66269 | 23214 ft | 298 kts | 178° |
| 2026-04-30 21:48 | 47.57768 | 6.66193 | 23236 ft | 289 kts | 178° |
| 2026-04-30 21:48 | 47.55741 | 6.66115 | 23251 ft | 295 kts | 178° |
| 2026-04-30 21:49 | 47.53669 | 6.66038 | 23259 ft | 302 kts | 178° |
| 2026-04-30 21:49 | 47.53038 | 6.66014 | 23252 ft | 303 kts | 178° |
| 2026-04-30 21:49 | 47.51386 | 6.65954 | 23251 ft | 308 kts | 178° |
| 2026-04-30 21:49 | 47.49204 | 6.65873 | 23245 ft | 315 kts | 178° |
| 2026-04-30 21:50 | 47.47019 | 6.65792 | 23254 ft | 321 kts | 178° |
| 2026-04-30 21:50 | 47.44772 | 6.65708 | 23256 ft | 326 kts | 178° |
| 2026-04-30 21:50 | 47.42454 | 6.65622 | 23250 ft | 331 kts | 178° |
| 2026-04-30 21:50 | 47.40156 | 6.65506 | 23239 ft | 336 kts | 181° |
| 2026-04-30 21:51 | 47.37864 | 6.64781 | 23254 ft | 342 kts | 194° |
| 2026-04-30 21:51 | 47.35563 | 6.63694 | 23241 ft | 346 kts | 195° |
| 2026-04-30 21:51 | 47.33286 | 6.62607 | 23233 ft | 349 kts | 195° |
| 2026-04-30 21:51 | 47.30964 | 6.61504 | 23234 ft | 350 kts | 195° |
| 2026-04-30 21:52 | 47.28661 | 6.60417 | 23241 ft | 349 kts | 195° |
| 2026-04-30 21:52 | 47.26349 | 6.59328 | 23239 ft | 348 kts | 195° |
| 2026-04-30 21:52 | 47.24060 | 6.58254 | 23238 ft | 347 kts | 195° |
| 2026-04-30 21:52 | 47.21763 | 6.57180 | 23244 ft | 346 kts | 195° |
| 2026-04-30 21:53 | 47.19460 | 6.56105 | 23243 ft | 346 kts | 195° |
| 2026-04-30 21:53 | 47.17163 | 6.55036 | 23242 ft | 345 kts | 195° |
| 2026-04-30 21:53 | 47.14873 | 6.53971 | 23240 ft | 345 kts | 195° |
| 2026-04-30 21:53 | 47.12585 | 6.52909 | 23241 ft | 345 kts | 195° |
| 2026-04-30 21:54 | 47.10297 | 6.51848 | 23238 ft | 345 kts | 194° |
| 2026-04-30 21:54 | 47.08007 | 6.50788 | 23241 ft | 346 kts | 194° |
| 2026-04-30 21:54 | 47.05735 | 6.49737 | 23243 ft | 346 kts | 195° |
| 2026-04-30 21:54 | 47.03435 | 6.48673 | 23243 ft | 346 kts | 194° |
| 2026-04-30 21:55 | 47.01131 | 6.47610 | 23245 ft | 346 kts | 195° |
| 2026-04-30 21:55 | 46.98854 | 6.46560 | 23246 ft | 346 kts | 195° |
| 2026-04-30 21:55 | 46.96556 | 6.45501 | 23243 ft | 347 kts | 195° |
| 2026-04-30 21:55 | 46.94237 | 6.44434 | 23238 ft | 347 kts | 195° |
| 2026-04-30 21:56 | 46.91934 | 6.43375 | 23235 ft | 347 kts | 195° |
| 2026-04-30 21:56 | 46.89656 | 6.42329 | 23229 ft | 347 kts | 195° |
| 2026-04-30 21:56 | 46.87352 | 6.41271 | 23230 ft | 347 kts | 195° |
| 2026-04-30 21:56 | 46.85027 | 6.40205 | 23229 ft | 347 kts | 195° |
| 2026-04-30 21:57 | 46.82710 | 6.39144 | 23225 ft | 347 kts | 195° |
| 2026-04-30 21:57 | 46.80391 | 6.38082 | 23228 ft | 347 kts | 195° |
| 2026-04-30 21:57 | 46.78088 | 6.37029 | 23236 ft | 347 kts | 195° |
| 2026-04-30 21:57 | 46.75783 | 6.35976 | 23233 ft | 347 kts | 195° |
| 2026-04-30 21:58 | 46.73488 | 6.34928 | 23233 ft | 347 kts | 194° |
| 2026-04-30 21:58 | 46.71196 | 6.33883 | 23232 ft | 347 kts | 194° |
| 2026-04-30 21:58 | 46.68881 | 6.32828 | 23234 ft | 346 kts | 194° |
| 2026-04-30 21:58 | 46.66579 | 6.31780 | 23233 ft | 346 kts | 194° |
| 2026-04-30 21:59 | 46.64280 | 6.30734 | 23239 ft | 346 kts | 195° |
| 2026-04-30 21:59 | 46.61998 | 6.29697 | 23235 ft | 345 kts | 195° |
| 2026-04-30 21:59 | 46.59712 | 6.28660 | 23238 ft | 345 kts | 195° |
| 2026-04-30 22:00 | 46.55129 | 6.26581 | 23248 ft | 345 kts | 194° |
| 2026-04-30 22:00 | 46.50561 | 6.24514 | 23245 ft | 345 kts | 195° |
| 2026-04-30 22:00 | 46.48281 | 6.23483 | 23248 ft | 344 kts | 194° |
| 2026-04-30 22:01 | 46.45995 | 6.22451 | 23244 ft | 344 kts | 195° |
| 2026-04-30 22:01 | 46.43693 | 6.21412 | 23238 ft | 344 kts | 195° |
| 2026-04-30 22:01 | 46.41395 | 6.20376 | 23240 ft | 344 kts | 195° |
| 2026-04-30 22:01 | 46.39120 | 6.19352 | 23234 ft | 344 kts | 195° |
| 2026-04-30 22:02 | 46.36852 | 6.18331 | 23231 ft | 344 kts | 195° |
| 2026-04-30 22:02 | 46.34576 | 6.17308 | 23226 ft | 344 kts | 195° |
| 2026-04-30 22:02 | 46.32260 | 6.16267 | 23222 ft | 344 kts | 195° |
| 2026-04-30 22:02 | 46.29994 | 6.15250 | 23223 ft | 343 kts | 195° |
| 2026-04-30 22:03 | 46.27719 | 6.14233 | 23222 ft | 343 kts | 194° |
| 2026-04-30 22:03 | 46.25356 | 6.13715 | 23199 ft | 336 kts | 173° |
| 2026-04-30 22:03 | 46.23144 | 6.14553 | 23244 ft | 330 kts | 157° |
| 2026-04-30 22:03 | 46.21000 | 6.15772 | 23233 ft | 331 kts | 155° |
| 2026-04-30 22:04 | 46.18859 | 6.17014 | 23229 ft | 331 kts | 155° |
| 2026-04-30 22:04 | 46.16708 | 6.18267 | 23226 ft | 331 kts | 155° |
| 2026-04-30 22:04 | 46.12458 | 6.20742 | 23229 ft | 332 kts | 156° |
| 2026-04-30 22:05 | 46.10302 | 6.21997 | 23234 ft | 332 kts | 156° |
| 2026-04-30 22:05 | 46.08143 | 6.23253 | 23235 ft | 334 kts | 156° |
| 2026-04-30 22:05 | 46.05992 | 6.24503 | 23232 ft | 335 kts | 156° |
| 2026-04-30 22:05 | 46.03838 | 6.25753 | 23235 ft | 336 kts | 156° |
| 2026-04-30 22:06 | 46.01665 | 6.27014 | 23237 ft | 337 kts | 156° |
| 2026-04-30 22:06 | 45.97284 | 6.29552 | 23239 ft | 339 kts | 156° |
| 2026-04-30 22:06 | 45.95113 | 6.30808 | 23244 ft | 339 kts | 156° |
| 2026-04-30 22:07 | 45.92936 | 6.32067 | 23252 ft | 339 kts | 156° |
| 2026-04-30 22:07 | 45.90748 | 6.33331 | 23264 ft | 338 kts | 156° |
| 2026-04-30 22:07 | 45.88567 | 6.34590 | 23266 ft | 337 kts | 156° |
| 2026-04-30 22:07 | 45.86361 | 6.35862 | 23260 ft | 337 kts | 156° |
| 2026-04-30 22:08 | 45.84195 | 6.37111 | 23272 ft | 337 kts | 156° |
| 2026-04-30 22:08 | 45.81998 | 6.38377 | 23279 ft | 337 kts | 156° |
| 2026-04-30 22:08 | 45.79937 | 6.39889 | 23271 ft | 336 kts | 144° |
| 2026-04-30 22:08 | 45.78036 | 6.41805 | 23276 ft | 336 kts | 142° |
| 2026-04-30 22:09 | 45.76129 | 6.43771 | 23284 ft | 337 kts | 142° |
| 2026-04-30 22:09 | 45.74233 | 6.45721 | 23286 ft | 337 kts | 142° |
| 2026-04-30 22:09 | 45.72329 | 6.47676 | 23285 ft | 338 kts | 142° |
| 2026-04-30 22:09 | 45.70407 | 6.49642 | 23283 ft | 339 kts | 142° |
| 2026-04-30 22:10 | 45.68516 | 6.51573 | 23283 ft | 339 kts | 142° |
| 2026-04-30 22:10 | 45.66585 | 6.53540 | 23286 ft | 338 kts | 142° |
| 2026-04-30 22:10 | 45.64673 | 6.55486 | 23289 ft | 339 kts | 142° |
| 2026-04-30 22:10 | 45.62765 | 6.57424 | 23288 ft | 339 kts | 142° |
| 2026-04-30 22:11 | 45.58921 | 6.61323 | 23289 ft | 339 kts | 142° |
| 2026-04-30 22:11 | 45.56999 | 6.63269 | 23289 ft | 339 kts | 142° |
| 2026-04-30 22:11 | 45.55073 | 6.65216 | 23283 ft | 339 kts | 143° |
| 2026-04-30 22:12 | 45.53159 | 6.67149 | 23275 ft | 339 kts | 143° |
| 2026-04-30 22:12 | 45.51237 | 6.69089 | 23278 ft | 339 kts | 143° |
| 2026-04-30 22:12 | 45.49305 | 6.71037 | 23282 ft | 339 kts | 143° |
| 2026-04-30 22:12 | 45.47389 | 6.72968 | 23288 ft | 339 kts | 143° |
| 2026-04-30 22:13 | 45.45464 | 6.74905 | 23296 ft | 339 kts | 143° |
| 2026-04-30 22:13 | 45.43558 | 6.76822 | 23300 ft | 339 kts | 143° |
| 2026-04-30 22:13 | 45.41638 | 6.78751 | 23298 ft | 339 kts | 143° |
| 2026-04-30 22:13 | 45.39697 | 6.80700 | 23302 ft | 339 kts | 143° |
| 2026-04-30 22:14 | 45.37779 | 6.82624 | 23309 ft | 339 kts | 143° |
| 2026-04-30 22:14 | 45.35840 | 6.84568 | 23313 ft | 339 kts | 143° |
| 2026-04-30 22:14 | 45.33925 | 6.86484 | 23310 ft | 340 kts | 143° |
| 2026-04-30 22:14 | 45.32002 | 6.88409 | 23315 ft | 340 kts | 143° |
| 2026-04-30 22:15 | 45.30068 | 6.90342 | 23316 ft | 340 kts | 143° |
| 2026-04-30 22:15 | 45.28147 | 6.92260 | 23318 ft | 340 kts | 143° |
| 2026-04-30 22:15 | 45.26070 | 6.93880 | 23287 ft | 342 kts | 161° |
| 2026-04-30 22:15 | 45.23734 | 6.94444 | 23339 ft | 341 kts | 172° |
| 2026-04-30 22:16 | 45.21354 | 6.94814 | 23339 ft | 342 kts | 173° |
| 2026-04-30 22:16 | 45.19020 | 6.95171 | 23331 ft | 342 kts | 173° |
| 2026-04-30 22:17 | 45.11904 | 6.96265 | 23333 ft | 343 kts | 173° |
| 2026-04-30 22:17 | 45.09527 | 6.96633 | 23329 ft | 344 kts | 173° |
| 2026-04-30 22:17 | 45.04784 | 6.97369 | 23324 ft | 345 kts | 173° |
| 2026-04-30 22:18 | 45.02387 | 6.97742 | 23324 ft | 345 kts | 173° |
| 2026-04-30 22:18 | 44.97646 | 6.98479 | 23319 ft | 346 kts | 173° |
| 2026-04-30 22:19 | 44.92850 | 6.99224 | 23305 ft | 346 kts | 173° |
| 2026-04-30 22:19 | 44.90462 | 6.99595 | 23301 ft | 346 kts | 173° |
| 2026-04-30 22:19 | 44.85769 | 7.00324 | 23282 ft | 344 kts | 173° |
| 2026-04-30 22:20 | 44.83348 | 7.00699 | 23281 ft | 345 kts | 173° |
| 2026-04-30 22:20 | 44.78502 | 7.01488 | 23277 ft | 345 kts | 171° |
| 2026-04-30 22:20 | 44.76087 | 7.02064 | 23274 ft | 345 kts | 169° |
| 2026-04-30 22:21 | 44.73724 | 7.02650 | 23269 ft | 346 kts | 169° |
| 2026-04-30 22:21 | 44.71346 | 7.03234 | 23262 ft | 346 kts | 169° |
| 2026-04-30 22:21 | 44.68965 | 7.03815 | 23263 ft | 346 kts | 169° |
| 2026-04-30 22:21 | 44.66606 | 7.04387 | 23266 ft | 347 kts | 169° |
| 2026-04-30 22:22 | 44.64224 | 7.04960 | 23269 ft | 348 kts | 169° |
| 2026-04-30 22:22 | 44.61823 | 7.05536 | 23275 ft | 349 kts | 169° |
| 2026-04-30 22:22 | 44.59428 | 7.06109 | 23279 ft | 349 kts | 169° |
| 2026-04-30 22:22 | 44.57015 | 7.06685 | 23279 ft | 350 kts | 169° |
| 2026-04-30 22:23 | 44.54641 | 7.07250 | 23279 ft | 350 kts | 169° |
| 2026-04-30 22:23 | 44.52223 | 7.07825 | 23280 ft | 350 kts | 169° |
| 2026-04-30 22:23 | 44.49813 | 7.08397 | 23279 ft | 350 kts | 169° |
| 2026-04-30 22:23 | 44.47422 | 7.08963 | 23279 ft | 350 kts | 169° |
| 2026-04-30 22:24 | 44.45016 | 7.09532 | 23276 ft | 351 kts | 170° |
| 2026-04-30 22:24 | 44.42626 | 7.10097 | 23277 ft | 351 kts | 169° |
| 2026-04-30 22:24 | 44.40199 | 7.10670 | 23275 ft | 351 kts | 170° |
| 2026-04-30 22:24 | 44.37801 | 7.11236 | 23276 ft | 352 kts | 170° |
| 2026-04-30 22:25 | 44.35379 | 7.11807 | 23275 ft | 352 kts | 170° |
| 2026-04-30 22:25 | 44.32967 | 7.12375 | 23275 ft | 352 kts | 170° |
| 2026-04-30 22:25 | 44.30552 | 7.12943 | 23167 ft | 356 kts | 170° |
| 2026-04-30 22:25 | 44.28106 | 7.13519 | 22949 ft | 356 kts | 170° |
| 2026-04-30 22:26 | 44.23229 | 7.14666 | 22451 ft | 357 kts | 170° |
| 2026-04-30 22:26 | 44.20821 | 7.15428 | 22183 ft | 357 kts | 160° |
| 2026-04-30 22:26 | 44.18527 | 7.16714 | 21950 ft | 356 kts | 156° |
| 2026-04-30 22:27 | 44.16229 | 7.18082 | 21706 ft | 354 kts | 156° |
| 2026-04-30 22:27 | 44.13970 | 7.19427 | 21468 ft | 352 kts | 156° |
| 2026-04-30 22:27 | 44.09502 | 7.22073 | 20994 ft | 348 kts | 156° |
| 2026-04-30 22:28 | 44.05055 | 7.24691 | 20523 ft | 345 kts | 156° |
| 2026-04-30 22:28 | 44.02832 | 7.25995 | 20292 ft | 343 kts | 156° |
| 2026-04-30 22:29 | 43.96270 | 7.29834 | 19594 ft | 341 kts | 156° |
| 2026-04-30 22:29 | 43.94092 | 7.31104 | 19368 ft | 340 kts | 156° |
| 2026-04-30 22:30 | 43.85425 | 7.36149 | 18455 ft | 336 kts | 156° |
| 2026-04-30 22:31 | 43.79640 | 7.41337 | 17760 ft | 332 kts | 139° |
| 2026-04-30 22:32 | 43.74274 | 7.47390 | 17043 ft | 330 kts | 139° |
| 2026-04-30 22:32 | 43.70730 | 7.51363 | 16571 ft | 328 kts | 139° |
| 2026-04-30 22:33 | 43.66843 | 7.58641 | 15910 ft | 317 kts | 107° |
| 2026-04-30 22:33 | 43.65385 | 7.64343 | 15519 ft | 315 kts | 106° |
| 2026-04-30 22:34 | 43.63100 | 7.72816 | 14871 ft | 316 kts | 118° |
| 2026-04-30 22:35 | 43.59522 | 7.76023 | 14320 ft | 311 kts | 162° |
| 2026-04-30 22:36 | 43.51160 | 7.79120 | 12964 ft | 319 kts | 165° |
| 2026-04-30 22:36 | 43.48995 | 7.79871 | 12463 ft | 315 kts | 165° |
| 2026-04-30 22:37 | 43.43213 | 7.78130 | 10651 ft | 299 kts | 237° |
| 2026-04-30 22:37 | 43.42516 | 7.75518 | 10040 ft | 290 kts | 265° |
| 2026-04-30 22:37 | 43.42377 | 7.70098 | 9040 ft | 284 kts | 272° |
| 2026-04-30 22:38 | 43.42428 | 7.64722 | 8328 ft | 271 kts | 274° |
| 2026-04-30 22:38 | 43.42526 | 7.59810 | 8094 ft | 251 kts | 275° |
| 2026-04-30 22:39 | 43.42593 | 7.57399 | 8004 ft | 257 kts | 275° |
| 2026-04-30 22:39 | 43.42828 | 7.49971 | 7722 ft | 260 kts | 276° |
| 2026-04-30 22:40 | 43.43080 | 7.42525 | 7469 ft | 260 kts | 276° |
| 2026-04-30 22:41 | 43.43328 | 7.35253 | 7654 ft | 249 kts | 276° |
| 2026-04-30 22:41 | 43.43496 | 7.30483 | 7829 ft | 250 kts | 275° |
| 2026-04-30 22:42 | 43.43833 | 7.20727 | 7701 ft | 272 kts | 274° |
| 2026-04-30 22:43 | 43.44225 | 7.15583 | 7231 ft | 261 kts | 283° |
| 2026-04-30 22:43 | 43.44872 | 7.10901 | 6684 ft | 237 kts | 283° |
| 2026-04-30 22:44 | 43.45471 | 7.06618 | 6181 ft | 228 kts | 284° |
| 2026-04-30 22:45 | 43.48057 | 6.99543 | 5162 ft | 204 kts | 1° |
| 2026-04-30 22:45 | 43.50588 | 7.00872 | 4728 ft | 197 kts | 38° |
| 2026-04-30 22:46 | 43.52571 | 7.03234 | 4163 ft | 170 kts | 43° |
| 2026-04-30 22:47 | 43.55580 | 7.07258 | 3085 ft | 145 kts | 44° |
| 2026-04-30 22:47 | 43.56958 | 7.09136 | 2336 ft | 129 kts | 44° |
| 2026-04-30 22:48 | 43.58161 | 7.10808 | 1915 ft | 117 kts | 46° |
| 2026-04-30 22:49 | 43.59926 | 7.13259 | 1498 ft | 124 kts | 45° |
| 2026-04-30 22:49 | 43.61766 | 7.15764 | 997 ft | 126 kts | 44° |
| 2026-04-30 22:50 | 43.64331 | 7.19242 | 299 ft | 129 kts | 43° |
| 2026-04-30 22:51 | 43.65587 | 7.20963 | 27 ft | 111 kts | 45° |
| 2026-04-30 22:51 | 43.66316 | 7.21966 | 27 ft | 44 kts | 44° |
| 2026-04-30 22:52 | 43.66444 | 7.22132 | 27 ft | 13 kts | 17° |
| 2026-04-30 22:52 | 43.66548 | 7.22038 | 27 ft | 4 kts | 315° |
| 2026-04-30 22:53 | 43.66513 | 7.21918 | 27 ft | 11 kts | 225° |
| 2026-04-30 22:53 | 43.66404 | 7.21767 | 27 ft | 9 kts | 227° |
| 2026-04-30 22:53 | 43.66364 | 7.21713 | 27 ft | 6 kts | 223° |
| 2026-04-30 22:54 | 43.66315 | 7.21647 | 27 ft | 5 kts | 227° |
| 2026-04-30 22:55 | 43.66359 | 7.21551 | 26 ft | 7 kts | 318° |
| 2026-04-30 22:55 | 43.66325 | 7.21403 | 26 ft | 13 kts | 224° |
| 2026-04-30 22:56 | 43.66213 | 7.21248 | 26 ft | 7 kts | 226° |
| 2026-04-30 22:56 | 43.66111 | 7.21104 | 26 ft | 9 kts | 243° |
| 2026-04-30 22:57 | 43.66172 | 7.21024 | 26 ft | 7 kts | 349° |
| 2026-04-30 22:57 | 43.66242 | 7.21091 | 26 ft | 3 kts | 45° |
| 2026-04-30 22:58 | 43.66255 | 7.21109 | 26 ft | 0 kts | 44° |
| 2026-04-30 22:59 | 43.66261 | 7.21118 | 26 ft | 1 kts | 44° |
| 2026-04-30 22:59 | 43.66255 | 7.21109 | 26 ft | 0 kts | 45° |